createdAt,value
2018-07-17T00:00:02.461Z,21.00
2018-07-17T00:02:30.745Z,21.00
2018-07-17T00:04:59.022Z,21.00
2018-07-17T00:07:27.229Z,20.90
2018-07-17T00:09:55.494Z,20.90
2018-07-17T00:12:23.757Z,20.90
2018-07-17T00:14:51.936Z,20.90
2018-07-17T00:17:20.214Z,20.80
2018-07-17T00:19:48.446Z,20.80
2018-07-17T00:22:17.606Z,20.80
2018-07-17T00:24:45.843Z,20.70
2018-07-17T00:27:14.095Z,20.70
2018-07-17T00:29:42.244Z,20.70
2018-07-17T00:32:10.540Z,20.70
2018-07-17T00:34:38.818Z,20.70
2018-07-17T00:37:07.050Z,20.70
2018-07-17T00:39:35.276Z,20.60
2018-07-17T00:42:03.489Z,20.60
2018-07-17T00:44:31.796Z,20.60
2018-07-17T00:47:00.304Z,20.60
2018-07-17T00:49:28.446Z,20.50
2018-07-17T00:51:56.678Z,20.50
2018-07-17T00:54:24.918Z,20.50
2018-07-17T00:56:53.130Z,20.50
2018-07-17T00:59:21.417Z,20.50
2018-07-17T01:01:55.060Z,20.50
2018-07-17T01:04:28.529Z,20.60
2018-07-17T01:07:02.028Z,20.60
2018-07-17T01:09:35.550Z,20.50
2018-07-17T01:12:09.329Z,20.50
2018-07-17T01:14:58.677Z,20.60
2018-07-17T01:17:27.450Z,20.60
2018-07-17T01:19:55.594Z,20.50
2018-07-17T01:22:24.013Z,20.50
2018-07-17T01:24:53.273Z,20.50
2018-07-17T01:27:21.402Z,20.50
2018-07-17T01:29:50.094Z,20.50
2018-07-17T01:32:18.291Z,20.50
2018-07-17T01:34:46.595Z,20.50
2018-07-17T01:37:14.885Z,20.50
2018-07-17T01:39:43.147Z,20.50
2018-07-17T01:42:11.293Z,20.60
2018-07-17T01:44:39.668Z,20.60
2018-07-17T01:47:07.839Z,20.60
2018-07-17T01:49:36.105Z,20.60
2018-07-17T01:52:04.291Z,20.70
2018-07-17T01:54:32.605Z,20.70
2018-07-17T01:57:00.781Z,20.80
2018-07-17T01:59:28.910Z,20.80
2018-07-17T02:01:57.098Z,20.80
2018-07-17T02:04:25.371Z,20.80
2018-07-17T02:06:53.625Z,20.80
2018-07-17T02:09:21.861Z,20.70
2018-07-17T02:11:50.303Z,20.70
2018-07-17T02:14:18.564Z,20.70
2018-07-17T02:16:46.813Z,20.70
2018-07-17T02:19:15.033Z,20.60
2018-07-17T02:21:43.324Z,20.60
2018-07-17T02:24:11.562Z,20.50
2018-07-17T02:26:39.898Z,20.50
2018-07-17T02:29:08.115Z,20.50
2018-07-17T02:31:36.271Z,20.50
2018-07-17T02:34:04.520Z,20.50
2018-07-17T02:36:32.996Z,20.60
2018-07-17T02:39:01.242Z,20.60
2018-07-17T02:41:29.417Z,20.60
2018-07-17T02:43:57.531Z,20.60
2018-07-17T02:46:25.773Z,20.60
2018-07-17T02:48:54.001Z,20.50
2018-07-17T02:51:22.268Z,20.40
2018-07-17T02:53:50.427Z,20.40
2018-07-17T02:56:19.819Z,20.40
2018-07-17T02:58:47.995Z,20.30
2018-07-17T03:01:16.273Z,20.30
2018-07-17T03:03:44.490Z,20.30
2018-07-17T03:06:12.695Z,20.30
2018-07-17T03:08:40.981Z,20.30
2018-07-17T03:11:09.191Z,20.30
2018-07-17T03:13:37.453Z,20.40
2018-07-17T03:16:05.751Z,20.40
2018-07-17T03:18:33.941Z,20.40
2018-07-17T03:21:02.186Z,20.40
2018-07-17T03:23:30.434Z,20.40
2018-07-17T03:25:58.711Z,20.50
2018-07-17T03:28:27.178Z,20.60
2018-07-17T03:30:56.475Z,20.70
2018-07-17T03:33:24.635Z,20.70
2018-07-17T03:35:52.809Z,20.80
2018-07-17T03:38:21.012Z,20.90
2018-07-17T03:40:49.234Z,21.00
2018-07-17T03:43:17.469Z,21.10
2018-07-17T03:45:45.637Z,21.10
2018-07-17T03:48:13.860Z,21.20
2018-07-17T03:50:42.078Z,21.30
2018-07-17T03:53:10.652Z,21.30
2018-07-17T03:55:38.770Z,21.40
2018-07-17T03:58:07.231Z,21.50
2018-07-17T04:00:36.190Z,21.60
2018-07-17T04:03:04.398Z,21.70
2018-07-17T04:05:32.582Z,21.80
2018-07-17T04:08:00.743Z,21.90
2018-07-17T04:10:29.056Z,22.00
2018-07-17T04:12:57.384Z,22.10
2018-07-17T04:15:25.572Z,22.30
2018-07-17T04:17:54.026Z,22.40
2018-07-17T04:20:22.212Z,22.60
2018-07-17T04:22:50.413Z,22.70
2018-07-17T04:25:18.664Z,23.00
2018-07-17T04:27:46.920Z,23.10
2018-07-17T04:30:15.133Z,23.20
2018-07-17T04:32:43.354Z,23.20
2018-07-17T04:35:11.638Z,23.20
2018-07-17T04:37:39.854Z,23.20
2018-07-17T04:40:08.078Z,23.30
2018-07-17T04:42:36.446Z,23.60
2018-07-17T04:45:04.822Z,23.80
2018-07-17T04:47:33.078Z,24.10
2018-07-17T04:50:01.340Z,24.30
2018-07-17T04:52:29.545Z,24.50
2018-07-17T04:54:57.663Z,24.70
2018-07-17T04:57:25.837Z,24.70
2018-07-17T04:59:54.081Z,24.80
2018-07-17T05:02:22.428Z,24.80
2018-07-17T05:04:50.620Z,25.00
2018-07-17T05:07:18.972Z,25.20
2018-07-17T05:09:48.392Z,25.40
2018-07-17T05:12:17.649Z,25.50
2018-07-17T05:14:46.359Z,25.50
2018-07-17T05:17:14.486Z,25.40
2018-07-17T05:19:42.868Z,25.40
2018-07-17T05:22:11.376Z,25.40
2018-07-17T05:24:39.525Z,25.50
2018-07-17T05:27:07.687Z,25.50
2018-07-17T05:29:35.919Z,25.40
2018-07-17T05:32:04.151Z,25.40
2018-07-17T05:34:32.399Z,25.30
2018-07-17T05:37:00.643Z,25.20
2018-07-17T05:39:28.951Z,25.20
2018-07-17T05:41:57.215Z,25.30
2018-07-17T05:44:25.396Z,25.40
2018-07-17T05:46:53.779Z,25.50
2018-07-17T05:49:21.967Z,25.60
2018-07-17T05:51:50.143Z,25.60
2018-07-17T05:54:18.580Z,25.70
2018-07-17T05:56:46.739Z,25.70
2018-07-17T05:59:15.394Z,25.70
2018-07-17T06:01:43.618Z,25.80
2018-07-17T06:04:11.791Z,25.80
2018-07-17T06:06:39.947Z,25.80
2018-07-17T06:09:09.177Z,25.80
2018-07-17T06:11:37.445Z,25.90
2018-07-17T06:14:05.882Z,26.10
2018-07-17T06:16:34.533Z,26.40
2018-07-17T06:19:03.339Z,26.80
2018-07-17T06:21:31.999Z,27.40
2018-07-17T06:24:00.282Z,27.90
2018-07-17T06:26:29.344Z,28.50
2018-07-17T06:28:57.622Z,29.10
2018-07-17T06:31:25.843Z,29.60
2018-07-17T06:33:54.082Z,29.80
2018-07-17T06:36:22.288Z,29.80
2018-07-17T06:38:50.599Z,29.80
2018-07-17T06:41:18.754Z,30.10
2018-07-17T06:43:46.992Z,30.40
2018-07-17T06:46:15.313Z,30.70
2018-07-17T06:48:43.558Z,31.10
2018-07-17T06:51:11.801Z,31.50
2018-07-17T06:53:39.992Z,32.00
2018-07-17T06:56:08.387Z,32.50
2018-07-17T06:58:36.736Z,33.50
2018-07-17T07:01:04.955Z,34.70
2018-07-17T07:03:33.239Z,35.10
2018-07-17T07:06:01.523Z,36.40
2018-07-17T07:08:29.832Z,37.80
2018-07-17T07:10:58.043Z,38.30
2018-07-17T07:13:26.372Z,37.90
2018-07-17T07:15:54.561Z,38.00
2018-07-17T07:18:22.724Z,38.40
2018-07-17T07:20:50.933Z,39.00
2018-07-17T07:23:19.200Z,39.30
2018-07-17T07:25:47.451Z,40.10
2018-07-17T07:28:15.698Z,40.80
2018-07-17T07:30:43.971Z,40.90
2018-07-17T07:33:12.797Z,41.60
2018-07-17T07:35:40.973Z,42.10
2018-07-17T07:38:09.187Z,41.30
2018-07-17T07:40:37.349Z,41.00
2018-07-17T07:43:06.056Z,40.80
2018-07-17T07:45:34.991Z,40.60
2018-07-17T07:48:03.868Z,40.00
2018-07-17T07:50:32.058Z,39.00
2018-07-17T07:53:00.173Z,38.20
2018-07-17T07:55:28.393Z,37.50
2018-07-17T07:57:56.534Z,37.30
2018-07-17T08:00:25.101Z,37.40
2018-07-17T08:02:53.629Z,37.30
2018-07-17T08:05:22.383Z,37.20
2018-07-17T08:07:50.629Z,36.80
2018-07-17T08:10:18.860Z,36.70
2018-07-17T08:12:47.028Z,36.30
2018-07-17T08:15:15.323Z,36.30
2018-07-17T08:17:43.902Z,36.50
2018-07-17T08:20:12.179Z,36.20
2018-07-17T08:22:40.396Z,36.40
2018-07-17T08:25:08.616Z,36.30
2018-07-17T08:27:36.974Z,36.00
2018-07-17T08:30:05.281Z,35.70
2018-07-17T08:32:33.519Z,35.40
2018-07-17T08:35:01.734Z,35.00
2018-07-17T08:37:29.963Z,34.70
2018-07-17T08:39:58.398Z,34.60
2018-07-17T08:42:26.632Z,34.60
2018-07-17T08:44:54.846Z,34.80
2018-07-17T08:47:23.088Z,35.00
2018-07-17T08:49:51.734Z,35.00
2018-07-17T08:52:20.152Z,34.60
2018-07-17T08:54:49.012Z,34.40
2018-07-17T08:57:17.223Z,34.20
2018-07-17T08:59:45.553Z,34.00
2018-07-17T09:02:13.733Z,33.80
2018-07-17T09:04:41.974Z,33.70
2018-07-17T09:07:10.243Z,33.60
2018-07-17T09:09:38.515Z,33.30
2018-07-17T09:12:06.802Z,32.90
2018-07-17T09:14:35.146Z,32.80
2018-07-17T09:17:03.409Z,32.50
2018-07-17T09:19:31.700Z,32.40
2018-07-17T09:22:18.627Z,32.30
2018-07-17T09:24:46.912Z,31.90
2018-07-17T09:27:15.090Z,31.60
2018-07-17T09:29:43.261Z,31.60
2018-07-17T09:32:11.493Z,31.60
2018-07-17T09:34:40.638Z,31.50
2018-07-17T09:37:09.097Z,31.40
2018-07-17T09:39:37.361Z,31.20
2018-07-17T09:42:05.950Z,31.00
2018-07-17T09:44:34.186Z,30.70
2018-07-17T09:47:02.932Z,30.50
2018-07-17T09:49:31.184Z,30.30
2018-07-17T09:51:59.424Z,30.20
2018-07-17T09:54:27.766Z,30.10
2018-07-17T09:56:55.922Z,30.10
2018-07-17T09:59:24.217Z,30.20
2018-07-17T10:01:58.264Z,30.30
2018-07-17T10:04:26.536Z,30.30
2018-07-17T10:06:54.711Z,30.20
2018-07-17T10:09:22.964Z,30.20
2018-07-17T10:11:51.236Z,30.00
2018-07-17T10:14:19.466Z,29.90
2018-07-17T10:16:47.696Z,30.00
2018-07-17T10:19:15.937Z,29.90
2018-07-17T10:21:44.209Z,29.80
2018-07-17T10:24:12.454Z,29.70
2018-07-17T10:26:40.781Z,29.60
2018-07-17T10:29:09.184Z,29.50
2018-07-17T10:31:37.407Z,29.50
2018-07-17T10:34:05.740Z,29.40
2018-07-17T10:36:34.042Z,29.50
2018-07-17T10:39:02.339Z,29.60
2018-07-17T10:41:30.543Z,29.50
2018-07-17T10:43:58.827Z,29.50
2018-07-17T10:46:27.112Z,29.60
2018-07-17T10:48:55.388Z,29.50
2018-07-17T10:51:23.588Z,29.40
2018-07-17T10:53:51.999Z,29.50
2018-07-17T10:58:55.414Z,29.60
2018-07-17T11:01:23.752Z,29.70
2018-07-17T11:03:51.976Z,29.80
2018-07-17T11:06:20.143Z,29.80
2018-07-17T11:08:48.343Z,29.80
2018-07-17T11:11:17.328Z,29.80
2018-07-17T11:13:45.557Z,29.70
2018-07-17T11:16:13.790Z,29.60
2018-07-17T11:18:42.619Z,29.50
2018-07-17T11:21:10.939Z,29.30
2018-07-17T11:23:39.158Z,29.20
2018-07-17T11:26:07.408Z,29.30
2018-07-17T11:28:35.669Z,29.50
2018-07-17T11:31:03.901Z,29.70
2018-07-17T11:33:32.097Z,29.80
2018-07-17T11:36:00.336Z,29.90
2018-07-17T11:38:28.798Z,29.90
2018-07-17T11:40:56.990Z,30.00
2018-07-17T11:43:25.206Z,29.90
2018-07-17T11:45:53.542Z,29.90
2018-07-17T11:48:28.299Z,29.90
2018-07-17T11:50:56.570Z,30.10
2018-07-17T11:53:24.896Z,30.10
2018-07-17T11:55:53.477Z,30.20
2018-07-17T11:58:21.783Z,30.20
2018-07-17T12:00:50.108Z,30.30
2018-07-17T12:03:18.334Z,30.40
2018-07-17T12:05:46.738Z,30.50
2018-07-17T12:08:15.040Z,30.40
2018-07-17T12:10:43.234Z,30.30
2018-07-17T12:13:11.406Z,30.20
2018-07-17T12:15:40.409Z,30.00
2018-07-17T12:18:08.577Z,30.00
2018-07-17T12:20:36.979Z,30.40
2018-07-17T12:23:05.202Z,30.80
2018-07-17T12:25:33.515Z,31.20
2018-07-17T12:28:01.760Z,31.40
2018-07-17T12:30:30.560Z,31.40
2018-07-17T12:32:59.640Z,31.60
2018-07-17T12:35:27.874Z,31.80
2018-07-17T12:37:56.149Z,32.00
2018-07-17T12:40:24.395Z,32.00
2018-07-17T12:42:52.661Z,32.00
2018-07-17T12:45:20.917Z,31.70
2018-07-17T12:47:49.125Z,31.40
2018-07-17T12:50:17.550Z,31.30
2018-07-17T12:52:45.713Z,31.40
2018-07-17T12:55:13.944Z,31.50
2018-07-17T12:57:42.224Z,31.50
2018-07-17T13:00:10.546Z,31.40
2018-07-17T13:02:38.819Z,31.30
2018-07-17T13:05:06.994Z,31.30
2018-07-17T13:07:35.365Z,31.40
2018-07-17T13:10:03.755Z,31.30
2018-07-17T13:12:32.014Z,31.20
2018-07-17T13:15:00.337Z,31.10
2018-07-17T13:17:28.730Z,31.00
2018-07-17T13:19:56.891Z,30.90
2018-07-17T13:22:25.143Z,30.90
2018-07-17T13:24:53.350Z,30.90
2018-07-17T13:27:21.524Z,31.00
2018-07-17T13:29:49.733Z,31.10
2018-07-17T13:32:17.935Z,31.10
2018-07-17T13:34:46.307Z,30.90
2018-07-17T13:37:14.498Z,30.90
2018-07-17T13:39:42.706Z,30.90
2018-07-17T13:42:10.867Z,31.00
2018-07-17T13:44:39.185Z,31.00
2018-07-17T13:47:07.393Z,31.00
2018-07-17T13:49:35.596Z,31.20
2018-07-17T13:52:03.763Z,31.40
2018-07-17T13:54:31.951Z,31.50
2018-07-17T13:57:00.254Z,31.60
2018-07-17T13:59:28.454Z,31.60
2018-07-17T14:01:56.732Z,31.80
2018-07-17T14:04:24.968Z,32.00
2018-07-17T14:06:53.357Z,32.10
2018-07-17T14:09:21.661Z,32.10
2018-07-17T14:11:49.878Z,32.10
2018-07-17T14:14:18.147Z,31.80
2018-07-17T14:16:46.400Z,31.80
2018-07-17T14:19:14.789Z,31.90
2018-07-17T14:21:43.118Z,31.80
2018-07-17T14:24:12.337Z,31.80
2018-07-17T14:26:40.594Z,31.60
2018-07-17T14:29:08.803Z,31.60
2018-07-17T14:31:37.111Z,31.80
2018-07-17T14:34:05.336Z,31.90
2018-07-17T14:36:33.592Z,32.10
2018-07-17T14:39:01.745Z,31.70
2018-07-17T14:41:29.996Z,31.70
2018-07-17T14:43:58.911Z,31.70
2018-07-17T14:46:27.273Z,31.70
2018-07-17T14:48:55.432Z,31.30
2018-07-17T14:51:24.173Z,31.00
2018-07-17T14:53:52.376Z,30.90
2018-07-17T14:56:21.252Z,31.20
2018-07-17T14:58:49.394Z,31.20
2018-07-17T15:01:17.672Z,31.20
2018-07-17T15:03:45.888Z,31.10
2018-07-17T15:06:14.116Z,31.10
2018-07-17T15:08:42.305Z,31.20
2018-07-17T15:11:10.550Z,31.20
2018-07-17T15:13:41.835Z,31.20
2018-07-17T15:16:10.076Z,31.40
2018-07-17T15:18:38.366Z,31.50
2018-07-17T15:21:06.565Z,31.70
2018-07-17T15:23:34.724Z,31.90
2018-07-17T15:26:03.007Z,31.90
2018-07-17T15:28:31.178Z,31.60
2018-07-17T15:30:59.419Z,31.30
2018-07-17T15:33:27.728Z,31.10
2018-07-17T15:35:55.985Z,31.10
2018-07-17T15:38:24.350Z,30.90
2018-07-17T15:40:52.502Z,31.10
2018-07-17T15:43:20.679Z,30.90
2018-07-17T15:45:49.015Z,30.80
2018-07-17T15:48:17.288Z,30.80
2018-07-17T15:50:45.446Z,30.60
2018-07-17T15:53:13.640Z,30.40
2018-07-17T15:55:41.960Z,30.20
2018-07-17T15:58:10.282Z,30.00
2018-07-17T16:00:38.545Z,29.90
2018-07-17T16:03:06.810Z,29.70
2018-07-17T16:05:35.472Z,29.70
2018-07-17T16:08:03.672Z,29.70
2018-07-17T16:10:31.906Z,29.70
2018-07-17T16:13:00.101Z,29.50
2018-07-17T16:15:28.290Z,29.50
2018-07-17T16:17:56.575Z,29.50
2018-07-17T16:20:24.850Z,29.40
2018-07-17T16:22:53.065Z,29.40
2018-07-17T16:25:21.302Z,29.30
2018-07-17T16:27:49.484Z,29.20
2018-07-17T16:30:17.821Z,29.00
2018-07-17T16:32:46.561Z,28.80
2018-07-17T16:35:14.896Z,28.90
2018-07-17T16:37:43.133Z,29.00
2018-07-17T16:40:19.866Z,29.10
2018-07-17T16:42:48.074Z,28.90
2018-07-17T16:45:16.847Z,28.70
2018-07-17T16:47:45.021Z,28.50
2018-07-17T16:50:13.193Z,28.40
2018-07-17T16:52:41.383Z,28.40
2018-07-17T16:55:09.598Z,28.30
2018-07-17T16:57:37.801Z,28.00
2018-07-17T17:00:06.382Z,27.60
2018-07-17T17:02:34.527Z,27.50
2018-07-17T17:05:02.811Z,27.30
2018-07-17T17:07:30.983Z,27.40
2018-07-17T17:09:59.169Z,27.40
2018-07-17T17:12:27.463Z,27.50
2018-07-17T17:14:55.683Z,27.50
2018-07-17T17:17:23.907Z,27.50
2018-07-17T17:19:52.139Z,27.40
2018-07-17T17:22:20.347Z,27.30
2018-07-17T17:24:48.844Z,27.30
2018-07-17T17:27:17.114Z,27.10
2018-07-17T17:29:45.484Z,27.00
2018-07-17T17:32:13.711Z,27.00
2018-07-17T17:34:42.657Z,27.00
2018-07-17T17:37:10.838Z,26.80
2018-07-17T17:39:39.017Z,26.70
2018-07-17T17:42:07.253Z,26.70
2018-07-17T17:44:35.498Z,26.50
2018-07-17T17:47:03.723Z,26.40
2018-07-17T17:49:32.012Z,26.40
2018-07-17T17:52:00.269Z,26.40
2018-07-17T17:54:28.473Z,26.50
2018-07-17T17:56:56.771Z,26.60
2018-07-17T17:59:25.024Z,26.60
2018-07-17T18:01:53.223Z,26.70
2018-07-17T18:04:21.406Z,26.50
2018-07-17T18:06:49.611Z,26.60
2018-07-17T18:09:17.826Z,26.50
2018-07-17T18:11:46.135Z,26.30
2018-07-17T18:14:14.381Z,26.20
2018-07-17T18:16:42.539Z,26.10
2018-07-17T18:19:10.782Z,26.00
2018-07-17T18:21:39.041Z,25.80
2018-07-17T18:24:07.323Z,25.70
2018-07-17T18:26:36.295Z,25.60
2018-07-17T18:29:05.572Z,25.60
2018-07-17T18:31:33.907Z,25.50
2018-07-17T18:34:02.183Z,25.50
2018-07-17T18:36:30.817Z,25.40
2018-07-17T18:38:59.009Z,25.40
2018-07-17T18:41:27.397Z,25.40
2018-07-17T18:43:55.554Z,25.40
2018-07-17T18:46:23.753Z,25.30
2018-07-17T18:48:51.945Z,25.20
2018-07-17T18:51:20.145Z,25.20
2018-07-17T18:53:49.246Z,25.20
2018-07-17T18:56:17.464Z,25.20
2018-07-17T18:58:45.715Z,25.20
2018-07-17T19:01:13.898Z,25.20
2018-07-17T19:03:42.055Z,25.10
2018-07-17T19:06:10.473Z,25.00
2018-07-17T19:08:38.984Z,24.80
2018-07-17T19:11:07.285Z,24.80
2018-07-17T19:13:35.463Z,24.80
2018-07-17T19:16:03.728Z,24.80
2018-07-17T19:18:32.116Z,24.70
2018-07-17T19:21:00.685Z,24.70
2018-07-17T19:23:29.518Z,24.70
2018-07-17T19:25:57.728Z,24.70
2018-07-17T19:28:25.945Z,24.60
2018-07-17T19:30:54.085Z,24.60
2018-07-17T19:33:22.348Z,24.60
2018-07-17T19:35:50.614Z,24.60
2018-07-17T19:38:19.014Z,24.60
2018-07-17T19:40:54.592Z,24.60
2018-07-17T19:43:22.948Z,24.60
2018-07-17T19:45:51.378Z,24.50
2018-07-17T19:48:19.747Z,24.50
2018-07-17T19:50:47.975Z,24.40
2018-07-17T19:53:16.219Z,24.40
2018-07-17T19:55:45.277Z,24.30
2018-07-17T19:58:13.555Z,24.30
2018-07-17T20:00:41.847Z,24.30
2018-07-17T20:03:10.127Z,24.30
2018-07-17T20:05:38.340Z,24.30
2018-07-17T20:08:06.889Z,24.30
2018-07-17T20:10:35.205Z,24.30
2018-07-17T20:13:03.436Z,24.30
2018-07-17T20:15:31.654Z,24.30
2018-07-17T20:17:59.895Z,24.30
2018-07-17T20:20:28.143Z,24.20
2018-07-17T20:22:56.368Z,24.10
2018-07-17T20:25:24.656Z,24.10
2018-07-17T20:27:53.109Z,24.10
2018-07-17T20:30:21.338Z,24.00
2018-07-17T20:32:49.691Z,24.00
2018-07-17T20:35:17.880Z,24.00
2018-07-17T20:37:46.102Z,23.90
2018-07-17T20:40:14.386Z,23.90
2018-07-17T20:42:42.629Z,23.80
2018-07-17T20:45:10.825Z,23.90
2018-07-17T20:47:39.083Z,23.90
2018-07-17T20:50:07.320Z,23.80
2018-07-17T20:52:37.185Z,23.80
2018-07-17T20:55:05.495Z,23.70
2018-07-17T20:57:33.826Z,23.70
2018-07-17T21:00:02.030Z,23.70
2018-07-17T21:02:30.218Z,23.80
2018-07-17T21:04:58.420Z,23.80
2018-07-17T21:07:26.588Z,23.70
2018-07-17T21:09:54.790Z,23.70
2018-07-17T21:12:23.058Z,23.70
2018-07-17T21:14:51.262Z,23.70
2018-07-17T21:17:19.582Z,23.80
2018-07-17T21:19:47.779Z,23.80
2018-07-17T21:22:15.980Z,23.80
2018-07-17T21:24:44.254Z,23.80
2018-07-17T21:27:12.469Z,23.60
2018-07-17T21:29:40.673Z,23.50
2018-07-17T21:32:08.894Z,23.50
2018-07-17T21:34:37.179Z,23.60
2018-07-17T21:37:05.427Z,23.60
2018-07-17T21:39:33.602Z,23.60
2018-07-17T21:42:01.846Z,23.70
2018-07-17T21:44:30.075Z,23.70
2018-07-17T21:46:58.300Z,23.80
2018-07-17T21:49:26.553Z,23.80
2018-07-17T21:51:54.823Z,23.80
2018-07-17T21:54:23.108Z,23.80
2018-07-17T21:56:51.334Z,23.90
2018-07-17T21:59:19.536Z,23.90
2018-07-17T22:01:47.991Z,23.90
2018-07-17T22:04:16.221Z,23.90
2018-07-17T22:06:44.488Z,23.90
2018-07-17T22:09:13.743Z,23.90
2018-07-17T22:11:42.996Z,23.80
2018-07-17T22:14:11.553Z,23.80
2018-07-17T22:16:39.826Z,23.80
2018-07-17T22:19:08.113Z,23.70
2018-07-17T22:21:36.317Z,23.70
2018-07-17T22:24:04.565Z,23.70
2018-07-17T22:26:32.722Z,23.70
2018-07-17T22:29:01.803Z,23.70
2018-07-17T22:31:29.979Z,23.60
2018-07-17T22:34:05.064Z,23.60
2018-07-17T22:36:33.313Z,23.60
2018-07-17T22:39:01.482Z,23.60
2018-07-17T22:41:30.050Z,23.60
2018-07-17T22:43:58.426Z,23.50
2018-07-17T22:46:26.867Z,23.50
2018-07-17T22:48:55.029Z,23.50
2018-07-17T22:51:23.329Z,23.50
2018-07-17T22:53:51.591Z,23.40
2018-07-17T22:56:19.897Z,23.50
2018-07-17T22:58:49.209Z,23.40
2018-07-17T23:01:17.534Z,23.40
2018-07-17T23:03:45.716Z,23.40
2018-07-17T23:06:14.133Z,23.40
2018-07-17T23:08:42.441Z,23.40
2018-07-17T23:11:10.653Z,23.40
2018-07-17T23:13:38.827Z,23.40
2018-07-17T23:16:07.073Z,23.40
2018-07-17T23:18:35.315Z,23.40
2018-07-17T23:21:03.479Z,23.40
2018-07-17T23:23:31.737Z,23.40
2018-07-17T23:25:59.909Z,23.40
2018-07-17T23:28:28.127Z,23.40
2018-07-17T23:30:56.411Z,23.30
2018-07-17T23:33:24.638Z,23.30
2018-07-17T23:35:52.790Z,23.30
2018-07-17T23:38:20.995Z,23.30
2018-07-17T23:40:49.193Z,23.30
2018-07-17T23:43:17.465Z,23.30
2018-07-17T23:45:45.674Z,23.30
2018-07-17T23:48:13.991Z,23.30
2018-07-17T23:50:42.244Z,23.30
2018-07-17T23:53:10.433Z,23.30
2018-07-17T23:55:38.693Z,23.30
2018-07-17T23:58:06.916Z,23.20
